sensor_id;sensor_type;location;lat;lon;timestamp;temperature;humidity
14993;DHT22;7592;51.088;13.732;2022-08-06T00:01:41;20.50;99.90
14993;DHT22;7592;51.088;13.732;2022-08-06T00:06:34;20.40;99.90
14993;DHT22;7592;51.088;13.732;2022-08-06T00:11:27;20.40;99.90
14993;DHT22;7592;51.088;13.732;2022-08-06T00:16:20;20.50;99.90
14993;DHT22;7592;51.088;13.732;2022-08-06T02:19:59;19.70;99.90
14993;DHT22;7592;51.088;13.732;2022-08-06T02:25:14;19.60;99.90
14993;DHT22;7592;51.088;13.732;2022-08-06T02:30:18;19.70;99.90
14993;DHT22;7592;51.088;13.732;2022-08-06T02:35:19;19.50;99.90
14993;DHT22;7592;51.088;13.732;2022-08-06T02:40:27;19.40;99.90
14993;DHT22;7592;51.088;13.732;2022-08-06T02:45:43;19.30;99.90
14993;DHT22;7592;51.088;13.732;2022-08-06T02:50:51;19.30;99.90
14993;DHT22;7592;51.088;13.732;2022-08-06T02:55:51;19.20;99.90
14993;DHT22;7592;51.088;13.732;2022-08-06T03:00:45;19.10;99.90
14993;DHT22;7592;51.088;13.732;2022-08-06T03:05:44;19.10;99.90
14993;DHT22;7592;51.088;13.732;2022-08-06T03:10:47;19.00;99.90
14993;DHT22;7592;51.088;13.732;2022-08-06T03:15:42;18.80;99.90
14993;DHT22;7592;51.088;13.732;2022-08-06T03:20:53;18.70;99.90
14993;DHT22;7592;51.088;13.732;2022-08-06T03:25:48;18.50;99.90
14993;DHT22;7592;51.088;13.732;2022-08-06T03:30:42;18.60;99.90
14993;DHT22;7592;51.088;13.732;2022-08-06T03:35:38;18.50;99.90
14993;DHT22;7592;51.088;13.732;2022-08-06T03:40:44;18.50;99.90
14993;DHT22;7592;51.088;13.732;2022-08-06T03:45:48;18.50;99.90
14993;DHT22;7592;51.088;13.732;2022-08-06T03:50:49;18.50;99.90
14993;DHT22;7592;51.088;13.732;2022-08-06T03:55:44;18.40;99.90
14993;DHT22;7592;51.088;13.732;2022-08-06T04:00:44;18.20;99.90
14993;DHT22;7592;51.088;13.732;2022-08-06T04:05:38;18.10;99.90
14993;DHT22;7592;51.088;13.732;2022-08-06T04:10:43;17.90;99.90
14993;DHT22;7592;51.088;13.732;2022-08-06T04:15:49;17.80;99.90
14993;DHT22;7592;51.088;13.732;2022-08-06T04:20:49;17.70;99.90
14993;DHT22;7592;51.088;13.732;2022-08-06T04:25:52;17.70;99.90
14993;DHT22;7592;51.088;13.732;2022-08-06T04:30:46;17.70;99.90
14993;DHT22;7592;51.088;13.732;2022-08-06T04:35:42;17.80;99.90
14993;DHT22;7592;51.088;13.732;2022-08-06T04:40:54;17.80;99.90
14993;DHT22;7592;51.088;13.732;2022-08-06T04:45:48;17.90;99.90
14993;DHT22;7592;51.088;13.732;2022-08-06T04:51:05;18.10;99.90
14993;DHT22;7592;51.088;13.732;2022-08-06T04:56:00;18.40;99.90
14993;DHT22;7592;51.088;13.732;2022-08-06T05:00:54;18.70;99.90
14993;DHT22;7592;51.088;13.732;2022-08-06T05:06:22;19.00;99.90
14993;DHT22;7592;51.088;13.732;2022-08-06T05:11:26;21.80;99.90
14993;DHT22;7592;51.088;13.732;2022-08-06T05:16:20;26.80;99.90
14993;DHT22;7592;51.088;13.732;2022-08-06T05:21:34;28.00;94.00
14993;DHT22;7592;51.088;13.732;2022-08-06T05:26:47;27.90;91.50
14993;DHT22;7592;51.088;13.732;2022-08-06T05:31:41;31.40;76.40
14993;DHT22;7592;51.088;13.732;2022-08-06T05:36:38;30.80;71.80
14993;DHT22;7592;51.088;13.732;2022-08-06T05:41:33;32.30;66.10
14993;DHT22;7592;51.088;13.732;2022-08-06T05:46:34;32.90;63.00
14993;DHT22;7592;51.088;13.732;2022-08-06T05:51:55;30.60;63.10
14993;DHT22;7592;51.088;13.732;2022-08-06T05:56:50;28.30;69.90
14993;DHT22;7592;51.088;13.732;2022-08-06T06:01:45;27.80;72.10
14993;DHT22;7592;51.088;13.732;2022-08-06T06:06:40;29.70;70.10
14993;DHT22;7592;51.088;13.732;2022-08-06T06:11:34;31.60;62.70
14993;DHT22;7592;51.088;13.732;2022-08-06T06:22:09;30.30;62.50
14993;DHT22;7592;51.088;13.732;2022-08-06T06:37:44;26.80;71.40
14993;DHT22;7592;51.088;13.732;2022-08-06T06:42:44;29.20;67.90
14993;DHT22;7592;51.088;13.732;2022-08-06T06:48:02;31.30;62.50
14993;DHT22;7592;51.088;13.732;2022-08-06T06:52:59;33.00;59.00
14993;DHT22;7592;51.088;13.732;2022-08-06T06:57:58;31.30;60.60
14993;DHT22;7592;51.088;13.732;2022-08-06T07:03:01;31.30;60.00
14993;DHT22;7592;51.088;13.732;2022-08-06T07:07:55;31.40;60.00
14993;DHT22;7592;51.088;13.732;2022-08-06T07:12:51;31.80;59.00
14993;DHT22;7592;51.088;13.732;2022-08-06T07:17:44;33.60;58.00
14993;DHT22;7592;51.088;13.732;2022-08-06T07:22:42;34.40;55.00
14993;DHT22;7592;51.088;13.732;2022-08-06T07:27:55;35.70;52.70
14993;DHT22;7592;51.088;13.732;2022-08-06T07:32:50;34.10;53.30
14993;DHT22;7592;51.088;13.732;2022-08-06T07:38:03;31.90;57.10
14993;DHT22;7592;51.088;13.732;2022-08-06T07:43:17;31.80;56.70
14993;DHT22;7592;51.088;13.732;2022-08-06T07:48:16;32.50;55.70
14993;DHT22;7592;51.088;13.732;2022-08-06T07:53:11;32.90;55.00
14993;DHT22;7592;51.088;13.732;2022-08-06T07:58:04;35.50;52.40
14993;DHT22;7592;51.088;13.732;2022-08-06T08:02:58;34.40;51.60
14993;DHT22;7592;51.088;13.732;2022-08-06T08:08:29;36.00;50.30
14993;DHT22;7592;51.088;13.732;2022-08-06T08:13:25;39.20;47.00
14993;DHT22;7592;51.088;13.732;2022-08-06T08:18:32;40.20;44.30
14993;DHT22;7592;51.088;13.732;2022-08-06T08:23:25;39.80;43.20
14993;DHT22;7592;51.088;13.732;2022-08-06T08:28:30;35.90;46.90
14993;DHT22;7592;51.088;13.732;2022-08-06T08:33:23;38.40;44.90
14993;DHT22;7592;51.088;13.732;2022-08-06T08:38:18;38.40;44.10
14993;DHT22;7592;51.088;13.732;2022-08-06T08:43:13;38.60;42.90
14993;DHT22;7592;51.088;13.732;2022-08-06T08:48:12;39.30;43.00
14993;DHT22;7592;51.088;13.732;2022-08-06T08:53:13;36.40;43.70
14993;DHT22;7592;51.088;13.732;2022-08-06T08:58:28;38.30;43.90
14993;DHT22;7592;51.088;13.732;2022-08-06T09:03:40;38.90;41.80
14993;DHT22;7592;51.088;13.732;2022-08-06T09:08:42;36.30;43.80
14993;DHT22;7592;51.088;13.732;2022-08-06T09:13:54;37.50;43.10
14993;DHT22;7592;51.088;13.732;2022-08-06T09:18:51;38.20;42.50
14993;DHT22;7592;51.088;13.732;2022-08-06T09:23:43;39.50;40.00
14993;DHT22;7592;51.088;13.732;2022-08-06T09:28:49;39.10;41.70
14993;DHT22;7592;51.088;13.732;2022-08-06T09:34:05;38.20;40.80
14993;DHT22;7592;51.088;13.732;2022-08-06T09:39:33;37.70;41.70
14993;DHT22;7592;51.088;13.732;2022-08-06T09:45:05;39.90;39.60
14993;DHT22;7592;51.088;13.732;2022-08-06T09:50:08;38.30;41.10
14993;DHT22;7592;51.088;13.732;2022-08-06T09:55:02;39.60;39.90
14993;DHT22;7592;51.088;13.732;2022-08-06T10:00:08;37.30;40.80
14993;DHT22;7592;51.088;13.732;2022-08-06T10:05:07;38.30;40.30
14993;DHT22;7592;51.088;13.732;2022-08-06T10:10:10;39.50;39.70
14993;DHT22;7592;51.088;13.732;2022-08-06T10:15:28;41.80;37.50
14993;DHT22;7592;51.088;13.732;2022-08-06T10:25:59;39.60;38.50
14993;DHT22;7592;51.088;13.732;2022-08-06T10:30:58;39.20;38.10
14993;DHT22;7592;51.088;13.732;2022-08-06T10:36:03;40.40;38.10
14993;DHT22;7592;51.088;13.732;2022-08-06T10:41:08;40.60;36.90
14993;DHT22;7592;51.088;13.732;2022-08-06T10:46:20;40.90;36.70
14993;DHT22;7592;51.088;13.732;2022-08-06T10:51:16;38.30;38.30
14993;DHT22;7592;51.088;13.732;2022-08-06T10:56:30;37.00;39.60
14993;DHT22;7592;51.088;13.732;2022-08-06T11:07:17;39.50;37.80
14993;DHT22;7592;51.088;13.732;2022-08-06T11:12:51;39.90;37.00
14993;DHT22;7592;51.088;13.732;2022-08-06T11:17:49;39.30;37.00
14993;DHT22;7592;51.088;13.732;2022-08-06T11:22:42;39.70;35.90
14993;DHT22;7592;51.088;13.732;2022-08-06T11:32:47;40.20;35.50
14993;DHT22;7592;51.088;13.732;2022-08-06T11:37:44;39.30;36.40
14993;DHT22;7592;51.088;13.732;2022-08-06T11:42:56;38.40;36.50
14993;DHT22;7592;51.088;13.732;2022-08-06T11:48:07;34.90;39.00
14993;DHT22;7592;51.088;13.732;2022-08-06T11:53:37;32.20;42.50
14993;DHT22;7592;51.088;13.732;2022-08-06T11:58:43;29.70;44.40
14993;DHT22;7592;51.088;13.732;2022-08-06T12:03:37;28.50;46.70
14993;DHT22;7592;51.088;13.732;2022-08-06T12:08:37;27.90;47.70
14993;DHT22;7592;51.088;13.732;2022-08-06T12:13:38;27.50;48.30
14993;DHT22;7592;51.088;13.732;2022-08-06T12:18:48;27.50;48.90
14993;DHT22;7592;51.088;13.732;2022-08-06T12:23:42;27.20;48.60
14993;DHT22;7592;51.088;13.732;2022-08-06T12:28:48;26.80;49.70
14993;DHT22;7592;51.088;13.732;2022-08-06T12:33:42;26.80;48.90
14993;DHT22;7592;51.088;13.732;2022-08-06T12:38:36;26.80;49.50
14993;DHT22;7592;51.088;13.732;2022-08-06T12:43:30;26.60;48.90
14993;DHT22;7592;51.088;13.732;2022-08-06T12:48:37;26.30;49.60
14993;DHT22;7592;51.088;13.732;2022-08-06T12:53:41;26.30;49.30
14993;DHT22;7592;51.088;13.732;2022-08-06T12:58:40;26.60;49.00
14993;DHT22;7592;51.088;13.732;2022-08-06T13:03:36;26.40;49.80
14993;DHT22;7592;51.088;13.732;2022-08-06T13:08:31;26.60;49.80
14993;DHT22;7592;51.088;13.732;2022-08-06T13:13:40;26.50;49.90
14993;DHT22;7592;51.088;13.732;2022-08-06T13:24:05;25.90;50.60
14993;DHT22;7592;51.088;13.732;2022-08-06T13:29:08;25.80;50.60
14993;DHT22;7592;51.088;13.732;2022-08-06T13:34:20;25.60;50.60
14993;DHT22;7592;51.088;13.732;2022-08-06T13:39:22;25.60;49.90
14993;DHT22;7592;51.088;13.732;2022-08-06T13:44:31;25.60;50.20
14993;DHT22;7592;51.088;13.732;2022-08-06T13:49:25;25.70;50.90
14993;DHT22;7592;51.088;13.732;2022-08-06T13:54:26;26.10;49.80
14993;DHT22;7592;51.088;13.732;2022-08-06T13:59:21;26.00;49.90
14993;DHT22;7592;51.088;13.732;2022-08-06T14:04:32;25.90;50.50
14993;DHT22;7592;51.088;13.732;2022-08-06T14:09:27;25.90;50.30
14993;DHT22;7592;51.088;13.732;2022-08-06T14:14:40;26.10;49.80
14993;DHT22;7592;51.088;13.732;2022-08-06T14:19:38;26.50;49.80
14993;DHT22;7592;51.088;13.732;2022-08-06T14:24:51;26.20;49.70
14993;DHT22;7592;51.088;13.732;2022-08-06T14:29:44;26.20;49.90
14993;DHT22;7592;51.088;13.732;2022-08-06T14:34:57;26.20;49.90
14993;DHT22;7592;51.088;13.732;2022-08-06T14:39:55;25.90;49.30
14993;DHT22;7592;51.088;13.732;2022-08-06T14:44:53;25.80;50.10
14993;DHT22;7592;51.088;13.732;2022-08-06T14:49:49;25.60;49.60
14993;DHT22;7592;51.088;13.732;2022-08-06T14:54:43;25.60;50.00
14993;DHT22;7592;51.088;13.732;2022-08-06T14:59:47;25.30;50.20
14993;DHT22;7592;51.088;13.732;2022-08-06T15:04:48;25.10;50.00
14993;DHT22;7592;51.088;13.732;2022-08-06T15:09:43;25.20;50.30
14993;DHT22;7592;51.088;13.732;2022-08-06T15:14:56;25.10;49.70
14993;DHT22;7592;51.088;13.732;2022-08-06T15:19:48;24.90;50.50
14993;DHT22;7592;51.088;13.732;2022-08-06T15:24:41;24.80;50.80
14993;DHT22;7592;51.088;13.732;2022-08-06T15:29:34;24.60;51.10
14993;DHT22;7592;51.088;13.732;2022-08-06T15:34:26;24.80;51.40
14993;DHT22;7592;51.088;13.732;2022-08-06T15:39:19;24.80;51.00
14993;DHT22;7592;51.088;13.732;2022-08-06T15:44:33;24.80;51.00
14993;DHT22;7592;51.088;13.732;2022-08-06T15:49:33;24.50;50.90
14993;DHT22;7592;51.088;13.732;2022-08-06T15:54:48;24.50;51.20
14993;DHT22;7592;51.088;13.732;2022-08-06T15:59:41;24.60;51.50
14993;DHT22;7592;51.088;13.732;2022-08-06T16:04:45;24.60;51.40
14993;DHT22;7592;51.088;13.732;2022-08-06T16:09:40;24.60;51.60
14993;DHT22;7592;51.088;13.732;2022-08-06T16:14:54;24.40;52.50
14993;DHT22;7592;51.088;13.732;2022-08-06T16:19:49;24.30;51.80
14993;DHT22;7592;51.088;13.732;2022-08-06T16:24:42;24.20;51.80
14993;DHT22;7592;51.088;13.732;2022-08-06T16:29:34;24.10;52.10
14993;DHT22;7592;51.088;13.732;2022-08-06T16:34:26;24.10;52.20
14993;DHT22;7592;51.088;13.732;2022-08-06T16:39:29;24.00;52.00
14993;DHT22;7592;51.088;13.732;2022-08-06T16:44:27;23.80;52.10
14993;DHT22;7592;51.088;13.732;2022-08-06T16:49:27;23.70;53.40
14993;DHT22;7592;51.088;13.732;2022-08-06T16:54:46;23.60;53.10
14993;DHT22;7592;51.088;13.732;2022-08-06T16:59:39;23.60;53.00
14993;DHT22;7592;51.088;13.732;2022-08-06T17:04:33;23.50;53.60
14993;DHT22;7592;51.088;13.732;2022-08-06T17:09:27;23.30;52.60
14993;DHT22;7592;51.088;13.732;2022-08-06T17:14:42;23.20;53.40
14993;DHT22;7592;51.088;13.732;2022-08-06T17:19:50;23.20;53.90
14993;DHT22;7592;51.088;13.732;2022-08-06T17:24:52;23.00;53.50
14993;DHT22;7592;51.088;13.732;2022-08-06T17:29:46;22.90;53.20
14993;DHT22;7592;51.088;13.732;2022-08-06T17:34:40;22.90;55.40
14993;DHT22;7592;51.088;13.732;2022-08-06T17:39:32;22.80;54.20
14993;DHT22;7592;51.088;13.732;2022-08-06T17:44:30;22.60;55.90
14993;DHT22;7592;51.088;13.732;2022-08-06T17:49:23;22.40;55.40
14993;DHT22;7592;51.088;13.732;2022-08-06T17:54:24;22.40;55.40
14993;DHT22;7592;51.088;13.732;2022-08-06T17:59:37;22.30;56.20
14993;DHT22;7592;51.088;13.732;2022-08-06T18:04:35;22.20;56.60
14993;DHT22;7592;51.088;13.732;2022-08-06T18:09:34;22.00;57.00
14993;DHT22;7592;51.088;13.732;2022-08-06T18:14:46;21.80;56.90
14993;DHT22;7592;51.088;13.732;2022-08-06T18:19:43;21.70;57.50
14993;DHT22;7592;51.088;13.732;2022-08-06T18:24:36;21.50;57.40
14993;DHT22;7592;51.088;13.732;2022-08-06T18:29:29;21.40;58.50
14993;DHT22;7592;51.088;13.732;2022-08-06T18:34:41;21.30;58.90
14993;DHT22;7592;51.088;13.732;2022-08-06T18:39:44;21.20;58.90
14993;DHT22;7592;51.088;13.732;2022-08-06T18:44:56;21.10;58.70
14993;DHT22;7592;51.088;13.732;2022-08-06T18:49:51;20.90;59.30
14993;DHT22;7592;51.088;13.732;2022-08-06T18:54:46;20.90;59.40
14993;DHT22;7592;51.088;13.732;2022-08-06T18:59:48;20.80;59.30
14993;DHT22;7592;51.088;13.732;2022-08-06T19:04:42;20.70;59.20
14993;DHT22;7592;51.088;13.732;2022-08-06T19:09:36;20.50;59.60
14993;DHT22;7592;51.088;13.732;2022-08-06T19:14:28;20.50;60.20
14993;DHT22;7592;51.088;13.732;2022-08-06T19:19:21;20.30;60.80
14993;DHT22;7592;51.088;13.732;2022-08-06T19:24:33;20.10;62.00
14993;DHT22;7592;51.088;13.732;2022-08-06T19:29:27;20.00;61.60
14993;DHT22;7592;51.088;13.732;2022-08-06T19:34:39;19.90;61.50
14993;DHT22;7592;51.088;13.732;2022-08-06T19:39:31;19.90;62.20
14993;DHT22;7592;51.088;13.732;2022-08-06T19:44:43;19.70;62.30
14993;DHT22;7592;51.088;13.732;2022-08-06T19:49:56;19.70;62.90
14993;DHT22;7592;51.088;13.732;2022-08-06T19:54:51;19.60;63.30
14993;DHT22;7592;51.088;13.732;2022-08-06T19:59:44;19.50;63.70
14993;DHT22;7592;51.088;13.732;2022-08-06T20:05:06;19.40;64.00
14993;DHT22;7592;51.088;13.732;2022-08-06T20:10:06;19.20;65.00
14993;DHT22;7592;51.088;13.732;2022-08-06T20:15:19;19.00;66.80
14993;DHT22;7592;51.088;13.732;2022-08-06T20:20:22;18.90;67.70
14993;DHT22;7592;51.088;13.732;2022-08-06T20:25:21;18.80;67.80
14993;DHT22;7592;51.088;13.732;2022-08-06T20:30:15;18.60;68.40
14993;DHT22;7592;51.088;13.732;2022-08-06T20:35:10;18.50;69.00
14993;DHT22;7592;51.088;13.732;2022-08-06T20:40:05;18.50;70.30
14993;DHT22;7592;51.088;13.732;2022-08-06T20:45:02;18.40;70.30
14993;DHT22;7592;51.088;13.732;2022-08-06T20:50:16;18.30;70.50
14993;DHT22;7592;51.088;13.732;2022-08-06T20:55:11;18.30;70.30
14993;DHT22;7592;51.088;13.732;2022-08-06T21:00:07;18.10;70.70
14993;DHT22;7592;51.088;13.732;2022-08-06T21:05:10;18.00;71.80
14993;DHT22;7592;51.088;13.732;2022-08-06T21:10:11;17.90;71.10
14993;DHT22;7592;51.088;13.732;2022-08-06T21:15:08;17.90;73.00
14993;DHT22;7592;51.088;13.732;2022-08-06T21:20:17;17.80;72.10
14993;DHT22;7592;51.088;13.732;2022-08-06T21:25:14;17.60;73.40
14993;DHT22;7592;51.088;13.732;2022-08-06T21:30:07;17.50;73.80
14993;DHT22;7592;51.088;13.732;2022-08-06T21:35:02;17.40;74.40
14993;DHT22;7592;51.088;13.732;2022-08-06T21:39:55;17.20;75.60
14993;DHT22;7592;51.088;13.732;2022-08-06T21:44:49;17.20;76.70
14993;DHT22;7592;51.088;13.732;2022-08-06T21:49:41;17.20;76.50
14993;DHT22;7592;51.088;13.732;2022-08-06T21:54:53;17.10;77.60
14993;DHT22;7592;51.088;13.732;2022-08-06T21:59:46;17.00;78.10
14993;DHT22;7592;51.088;13.732;2022-08-06T22:04:43;17.00;78.20
14993;DHT22;7592;51.088;13.732;2022-08-06T22:09:51;16.90;79.50
14993;DHT22;7592;51.088;13.732;2022-08-06T22:14:44;16.80;80.30
14993;DHT22;7592;51.088;13.732;2022-08-06T22:19:40;16.60;82.10
14993;DHT22;7592;51.088;13.732;2022-08-06T22:24:35;16.60;82.10
14993;DHT22;7592;51.088;13.732;2022-08-06T22:29:28;16.60;82.00
14993;DHT22;7592;51.088;13.732;2022-08-06T22:34:44;16.60;82.70
14993;DHT22;7592;51.088;13.732;2022-08-06T22:39:43;16.50;82.20
14993;DHT22;7592;51.088;13.732;2022-08-06T22:44:37;16.40;83.20
14993;DHT22;7592;51.088;13.732;2022-08-06T22:49:50;16.30;84.70
14993;DHT22;7592;51.088;13.732;2022-08-06T22:54:52;16.20;85.60
14993;DHT22;7592;51.088;13.732;2022-08-06T22:59:50;16.10;87.30
14993;DHT22;7592;51.088;13.732;2022-08-06T23:05:03;15.90;86.90
14993;DHT22;7592;51.088;13.732;2022-08-06T23:10:06;15.90;89.20
14993;DHT22;7592;51.088;13.732;2022-08-06T23:15:03;15.80;90.00
14993;DHT22;7592;51.088;13.732;2022-08-06T23:20:15;15.80;90.40
14993;DHT22;7592;51.088;13.732;2022-08-06T23:25:20;15.80;90.40
14993;DHT22;7592;51.088;13.732;2022-08-06T23:30:33;15.80;90.40
14993;DHT22;7592;51.088;13.732;2022-08-06T23:35:25;15.70;91.50
14993;DHT22;7592;51.088;13.732;2022-08-06T23:40:28;15.50;92.40
14993;DHT22;7592;51.088;13.732;2022-08-06T23:45:20;15.50;93.70
14993;DHT22;7592;51.088;13.732;2022-08-06T23:50:15;15.40;93.70
14993;DHT22;7592;51.088;13.732;2022-08-06T23:55:17;15.20;94.50
